sensor_id;sensor_type;location;lat;lon;timestamp;pressure;altitude;pressure_sealevel;temperature;humidity
61740;BME280;47645;45.288;12.038;2022-12-28T00:01:59;1026.937791768799;;;9.234375;100
61740;BME280;47645;45.288;12.038;2022-12-28T00:11:59;1026.723782701381;;;9.2955078125;100
61740;BME280;47645;45.288;12.038;2022-12-28T00:22:00;1026.6482682019735;;;9.45859375;100
61740;BME280;47645;45.288;12.038;2022-12-28T00:32:00;1026.5160786748545;;;9.43828125;100
61740;BME280;47645;45.288;12.038;2022-12-28T00:42:01;1026.5054769352107;;;9.530078125;100
61740;BME280;47645;45.288;12.038;2022-12-28T00:52:02;1026.4724618273262;;;9.43828125;100
61740;BME280;47645;45.288;12.038;2022-12-28T01:02:02;1026.5962126717761;;;9.530078125;100
61740;BME280;47645;45.288;12.038;2022-12-28T01:12:03;1026.6498606234516;;;9.1478515625;100
61740;BME280;47645;45.288;12.038;2022-12-28T01:22:03;1026.8747613136256;;;8.9287109375;100
61740;BME280;47645;45.288;12.038;2022-12-28T01:32:04;1026.7716716922707;;;8.7451171875;100
61740;BME280;47645;45.288;12.038;2022-12-28T01:42:04;1026.69108900958;;;8.8470703125;100
61740;BME280;47645;45.288;12.038;2022-12-28T01:52:07;1026.7068358471329;;;8.9591796875;100
61740;BME280;47645;45.288;12.038;2022-12-28T02:02:05;1026.703767414723;;;9.122265625;100
61740;BME280;47645;45.288;12.038;2022-12-28T02:12:06;1026.4670979358787;;;9.2650390625;100
61740;BME280;47645;45.288;12.038;2022-12-28T02:22:24;1026.3621806107415;;;9.2955078125;100
61740;BME280;47645;45.288;12.038;2022-12-28T02:32:19;1026.3236241214852;;;9.24453125;100
61740;BME280;47645;45.288;12.038;2022-12-28T02:42:10;1026.365712774296;;;9.336328125;100
61740;BME280;47645;45.288;12.038;2022-12-28T02:52:14;1026.4162534394727;;;9.2955078125;100
61740;BME280;47645;45.288;12.038;2022-12-28T03:02:19;1026.4217975883153;;;9.3720703125;100
61740;BME280;47645;45.288;12.038;2022-12-28T03:12:11;1026.500376663892;;;9.2701171875;100
61740;BME280;47645;45.288;12.038;2022-12-28T03:32:09;1026.3574428757934;;;9.0509765625;100
61740;BME280;47645;45.288;12.038;2022-12-28T03:52:10;1026.2705973925708;;;8.898046875;100
61740;BME280;47645;45.288;12.038;2022-12-28T04:02:10;1026.3746707864198;;;8.765625;100
61740;BME280;47645;45.288;12.038;2022-12-28T04:12:11;1026.1653571064323;;;8.58203125;100
61740;BME280;47645;45.288;12.038;2022-12-28T04:22:11;1026.0046174594643;;;8.780859375;100
61740;BME280;47645;45.288;12.038;2022-12-28T04:32:12;1026.167531405225;;;8.918359375;100
61740;BME280;47645;45.288;12.038;2022-12-28T04:42:12;1026.1347941341967;;;8.984765625;100
61740;BME280;47645;45.288;12.038;2022-12-28T04:52:13;1026.0730249392202;;;9.0203125;100
61740;BME280;47645;45.288;12.038;2022-12-28T05:02:13;1026.099545802999;;;8.918359375;100
61740;BME280;47645;45.288;12.038;2022-12-28T05:12:13;1026.0213942036974;;;8.877734375;100
61740;BME280;47645;45.288;12.038;2022-12-28T05:22:16;1026.0263207326655;;;8.7298828125;100
61740;BME280;47645;45.288;12.038;2022-12-28T05:32:15;1026.0791750659025;;;8.7095703125;100
61740;BME280;47645;45.288;12.038;2022-12-28T05:42:15;1026.1518098122297;;;8.8267578125;100
61740;BME280;47645;45.288;12.038;2022-12-28T05:52:15;1026.1376501711698;;;8.87265625;100
61740;BME280;47645;45.288;12.038;2022-12-28T06:02:16;1026.21976158235;;;8.4291015625;100
61740;BME280;47645;45.288;12.038;2022-12-28T06:12:16;1026.2238818136188;;;8.3119140625;100
61740;BME280;47645;45.288;12.038;2022-12-28T06:22:17;1026.221363794315;;;8.1947265625;100
61740;BME280;47645;45.288;12.038;2022-12-28T06:32:17;1025.9927489517472;;;8.2099609375;100
61740;BME280;47645;45.288;12.038;2022-12-28T06:42:18;1025.986674392005;;;8.266015625;100
61740;BME280;47645;45.288;12.038;2022-12-28T06:52:18;1026.1269313631371;;;8.031640625;100
61740;BME280;47645;45.288;12.038;2022-12-28T07:02:19;1026.2322619690326;;;7.8685546875;100
61740;BME280;47645;45.288;12.038;2022-12-28T07:12:19;1026.364999325846;;;7.91953125;100
61740;BME280;47645;45.288;12.038;2022-12-28T07:22:20;1026.3152758546464;;;7.797265625;99.7396662414923
61740;BME280;47645;45.288;12.038;2022-12-28T07:32:20;1026.5046138146836;;;8.0826171875;99.27050850157723
61740;BME280;47645;45.288;12.038;2022-12-28T07:42:21;1026.4398287542033;;;8.3017578125;100
61740;BME280;47645;45.288;12.038;2022-12-28T07:52:21;1026.389324931287;;;8.3119140625;98.82153748673073
61740;BME280;47645;45.288;12.038;2022-12-28T08:02:22;1026.429137695583;;;8.5921875;98.22863210961974
61740;BME280;47645;45.288;12.038;2022-12-28T08:12:22;1026.5934381386837;;;8.653515625;97.0957169571009
61740;BME280;47645;45.288;12.038;2022-12-28T08:22:23;1026.5958319093045;;;8.770703125;96.2032420907789
61740;BME280;47645;45.288;12.038;2022-12-28T08:32:23;1026.640541134078;;;8.8369140625;94.55787304065844
61740;BME280;47645;45.288;12.038;2022-12-28T08:42:23;1026.6502415888444;;;8.908203125;93.51597783086717
61740;BME280;47645;45.288;12.038;2022-12-28T08:52:24;1026.5873202727635;;;8.694140625;92.84964090484601
61740;BME280;47645;45.288;12.038;2022-12-28T09:02:24;1026.5748703268357;;;8.9541015625;90.11183571023801
61740;BME280;47645;45.288;12.038;2022-12-28T09:12:25;1026.6371606092869;;;9.0458984375;86.38924550189414
61740;BME280;47645;45.288;12.038;2022-12-28T09:22:25;1026.5872894863596;;;9.9021484375;82.02546989837968
61740;BME280;47645;45.288;12.038;2022-12-28T09:32:25;1026.6002017922976;;;10.1365234375;78.43609119144129
61740;BME280;47645;45.288;12.038;2022-12-28T09:42:28;1026.5843637762614;;;10.5697265625;76.00901714309
61740;BME280;47645;45.288;12.038;2022-12-28T09:52:29;1026.5563506542812;;;11.0998046875;75.00466586951566
61740;BME280;47645;45.288;12.038;2022-12-28T10:02:30;1026.6131885936056;;;11.6146484375;75.081027595696
61740;BME280;47645;45.288;12.038;2022-12-28T10:12:28;1026.4205050448882;;;12.14453125;69.28797541250206
61740;BME280;47645;45.288;12.038;2022-12-28T10:22:36;1026.3358423129566;;;12.4708984375;67.85231516199181
61740;BME280;47645;45.288;12.038;2022-12-28T10:32:47;1026.1667040109057;;;12.7255859375;66.92815149800215
61740;BME280;47645;45.288;12.038;2022-12-28T10:42:34;1026.1788134484889;;;12.205859375;69.00140664965369
61740;BME280;47645;45.288;12.038;2022-12-28T10:52:30;1026.1025968483946;;;12.3638671875;67.45232125397601
61740;BME280;47645;45.288;12.038;2022-12-28T11:02:32;1026.0955871014255;;;13.1587890625;68.34520656981132
61740;BME280;47645;45.288;12.038;2022-12-28T11:12:40;1026.0672588529808;;;13.50546875;75.12299442852617
61740;BME280;47645;45.288;12.038;2022-12-28T11:22:32;1025.9558772214898;;;13.587109375;68.52004041133686
61740;BME280;47645;45.288;12.038;2022-12-28T11:32:37;1025.9379647646629;;;13.2251953125;64.6179288157275
61740;BME280;47645;45.288;12.038;2022-12-28T11:44:00;1025.715268566857;;;13.530859375;69.86824740651579
61740;BME280;47645;45.288;12.038;2022-12-28T11:52:44;1025.6694659300458;;;13.724609375;69.10731507603141
61740;BME280;47645;45.288;12.038;2022-12-28T12:02:38;1025.615547952179;;;13.8826171875;66.72776116611514
61740;BME280;47645;45.288;12.038;2022-12-28T12:12:46;1025.4479561314633;;;14.14765625;70.40024460559265
61740;BME280;47645;45.288;12.038;2022-12-28T12:22:43;1025.3671773898357;;;14.045703125;70.63893686926738
61740;BME280;47645;45.288;12.038;2022-12-28T12:32:42;1025.1989883197373;;;14.0203125;66.93403924892951
61740;BME280;47645;45.288;12.038;2022-12-28T12:42:47;1025.1646956110126;;;13.831640625;63.44603417393855
61740;BME280;47645;45.288;12.038;2022-12-28T12:52:41;1025.1033314852655;;;13.5921875;67.84794012423583
61740;BME280;47645;45.288;12.038;2022-12-28T13:03:03;1025.043893697943;;;13.637890625;62.07620841078705
61740;BME280;47645;45.288;12.038;2022-12-28T13:12:40;1024.9865415560814;;;13.6787109375;64.63332643230464
61740;BME280;47645;45.288;12.038;2022-12-28T13:22:41;1024.9614817554202;;;13.40859375;65.14462832127562
61740;BME280;47645;45.288;12.038;2022-12-28T13:32:48;1024.9473967991587;;;13.2302734375;63.02459739555303
61740;BME280;47645;45.288;12.038;2022-12-28T13:42:50;1024.9183907146446;;;13.316796875;65.62757194765373
61740;BME280;47645;45.288;12.038;2022-12-28T13:52:44;1024.9224861162425;;;13.19453125;62.38861273495467
61740;BME280;47645;45.288;12.038;2022-12-28T14:02:43;1024.8009318830657;;;13.28125;64.80572288476563
61740;BME280;47645;45.288;12.038;2022-12-28T14:12:45;1024.752247621544;;;13.2404296875;68.78346354591656
61740;BME280;47645;45.288;12.038;2022-12-28T14:22:44;1024.6923866624902;;;13.38828125;63.84773465467534
61740;BME280;47645;45.288;12.038;2022-12-28T14:32:45;1024.6928614399635;;;13.403515625;65.3013778602828
61740;BME280;47645;45.288;12.038;2022-12-28T14:42:48;1024.544654470294;;;13.276171875;72.72082918333362
61740;BME280;47645;45.288;12.038;2022-12-28T14:52:47;1024.4875385838948;;;13.2201171875;66.6477230535416
61740;BME280;47645;45.288;12.038;2022-12-28T15:02:47;1024.4051104480534;;;12.95;66.72462212842814
61740;BME280;47645;45.288;12.038;2022-12-28T15:12:48;1024.3392797181123;;;12.6390625;78.27477291520844
61740;BME280;47645;45.288;12.038;2022-12-28T15:22:48;1024.244756167739;;;12.3994140625;83.97352395311599
61740;BME280;47645;45.288;12.038;2022-12-28T15:32:49;1024.2934238354835;;;12.1904296875;86.01584564492812
61740;BME280;47645;45.288;12.038;2022-12-28T15:42:49;1024.2308658346835;;;11.8541015625;87.64523260479156
61740;BME280;47645;45.288;12.038;2022-12-28T15:52:50;1024.2230299007342;;;11.583984375;88.97270750495956
61740;BME280;47645;45.288;12.038;2022-12-28T16:02:51;1024.1772518263256;;;11.2935546875;90.5243779171497
61740;BME280;47645;45.288;12.038;2022-12-28T16:12:51;1024.2868298894361;;;10.9775390625;91.75403471248097
61740;BME280;47645;45.288;12.038;2022-12-28T16:22:53;1024.320153063561;;;10.620703125;93.04384494326251
61740;BME280;47645;45.288;12.038;2022-12-28T16:32:53;1024.362327283379;;;10.3353515625;94.28651969144812
61740;BME280;47645;45.288;12.038;2022-12-28T16:42:53;1024.4522126208844;;;10.065234375;95.17989997952576
61740;BME280;47645;45.288;12.038;2022-12-28T16:52:53;1024.4506696597534;;;9.85625;96.13519126304556
61740;BME280;47645;45.288;12.038;2022-12-28T17:02:54;1024.5015631101853;;;9.540234375;97.0554626148466
61740;BME280;47645;45.288;12.038;2022-12-28T17:12:54;1024.581123074485;;;9.2650390625;98.39430568544988
61740;BME280;47645;45.288;12.038;2022-12-28T17:22:55;1024.5875490091787;;;9.2701171875;98.10965170761081
61740;BME280;47645;45.288;12.038;2022-12-28T17:32:56;1024.7003501608792;;;9.20390625;98.43937336716637
61740;BME280;47645;45.288;12.038;2022-12-28T17:42:56;1024.7931143325281;;;8.903125;99.63466962571182
61740;BME280;47645;45.288;12.038;2022-12-28T17:52:57;1024.7885577185582;;;8.9388671875;99.49210753012703
61740;BME280;47645;45.288;12.038;2022-12-28T18:02:57;1024.6715800180784;;;8.69921875;100
61740;BME280;47645;45.288;12.038;2022-12-28T18:12:57;1024.6983430922858;;;8.663671875;100
61740;BME280;47645;45.288;12.038;2022-12-28T18:22:58;1024.6788401896079;;;8.475;100
61740;BME280;47645;45.288;12.038;2022-12-28T18:32:58;1024.6537766014426;;;8.469921875;100
61740;BME280;47645;45.288;12.038;2022-12-28T18:42:59;1024.6751960329584;;;8.69921875;100
61740;BME280;47645;45.288;12.038;2022-12-28T18:52:59;1024.5524242060817;;;8.6890625;100
61740;BME280;47645;45.288;12.038;2022-12-28T19:03:00;1024.5368359608078;;;8.653515625;100
61740;BME280;47645;45.288;12.038;2022-12-28T19:13:00;1024.5008164359099;;;8.6890625;100
61740;BME280;47645;45.288;12.038;2022-12-28T19:23:00;1024.391962243185;;;8.6330078125;100
61740;BME280;47645;45.288;12.038;2022-12-28T19:33:01;1024.372385859175;;;8.6482421875;100
61740;BME280;47645;45.288;12.038;2022-12-28T19:43:01;1024.3846096175062;;;8.6890625;100
61740;BME280;47645;45.288;12.038;2022-12-28T19:53:02;1024.467960291098;;;8.7095703125;100
61740;BME280;47645;45.288;12.038;2022-12-28T20:03:02;1024.5296565779431;;;8.80625;100
61740;BME280;47645;45.288;12.038;2022-12-28T20:13:03;1024.549619694767;;;8.8572265625;100
61740;BME280;47645;45.288;12.038;2022-12-28T20:23:03;1024.607365772271;;;8.7197265625;100
61740;BME280;47645;45.288;12.038;2022-12-28T20:33:04;1024.5752284055138;;;8.898046875;100
61740;BME280;47645;45.288;12.038;2022-12-28T20:43:36;1024.5068601819912;;;8.7501953125;100
61740;BME280;47645;45.288;12.038;2022-12-28T20:53:05;1024.3957019842321;;;8.66875;100
61740;BME280;47645;45.288;12.038;2022-12-28T21:03:05;1024.5193175607744;;;8.67890625;100
61740;BME280;47645;45.288;12.038;2022-12-28T21:13:05;1024.4739423317435;;;8.6025390625;100
61740;BME280;47645;45.288;12.038;2022-12-28T21:23:06;1024.3762814875463;;;8.6279296875;100
61740;BME280;47645;45.288;12.038;2022-12-28T21:33:07;1024.3241631478288;;;8.66875;100
61740;BME280;47645;45.288;12.038;2022-12-28T21:43:07;1024.1962847806042;;;8.6279296875;100
61740;BME280;47645;45.288;12.038;2022-12-28T21:53:08;1024.0662819702227;;;8.663671875;100
61740;BME280;47645;45.288;12.038;2022-12-28T22:13:08;1023.8084072255017;;;8.6076171875;100
61740;BME280;47645;45.288;12.038;2022-12-28T22:23:09;1024.154188105859;;;8.7298828125;100
61740;BME280;47645;45.288;12.038;2022-12-28T22:33:09;1024.0755247169689;;;8.6380859375;100
61740;BME280;47645;45.288;12.038;2022-12-28T22:43:10;1024.0494465587124;;;8.449609375;100
61740;BME280;47645;45.288;12.038;2022-12-28T22:53:10;1024.0401237071458;;;8.6025390625;100
61740;BME280;47645;45.288;12.038;2022-12-28T23:03:11;1023.9513694465834;;;8.4291015625;100
61740;BME280;47645;45.288;12.038;2022-12-28T23:13:14;1023.7605881266547;;;8.5412109375;100
61740;BME280;47645;45.288;12.038;2022-12-28T23:33:13;1023.6041071186216;;;8.46484375;100
61740;BME280;47645;45.288;12.038;2022-12-28T23:43:13;1023.6343495443871;;;8.3017578125;100
61740;BME280;47645;45.288;12.038;2022-12-28T23:53:14;1023.5535797662831;;;8.2966796875;100
